Time;durP1;ratioP1;P1;durP2;ratioP2;P2;SDS_P1;SDS_P2;PMS_P1;PMS_P2;Temp;Humidity;BMP_temperature;BMP_pressure;BME280_temperature;BME280_humidity;BME280_pressure;Samples;Min_cycle;Max_cycle;Signal;HPM_P1;HPM_P2
2022/09/12 00:00:44;;;;;;;4.50;4.10;;;;;;;9.73;100.00;101226.38;5064296;28;19916;-73
2022/09/12 00:03:09;;;;;;;5.00;3.90;;;;;;;9.71;100.00;101235.50;5065388;28;20911;-74
2022/09/12 00:05:43;;;;;;;5.27;4.13;;;;;;;9.68;100.00;101243.78;5065869;28;20020;-75
2022/09/12 00:08:09;;;;;;;6.15;4.25;;;;;;;9.64;100.00;101245.88;5064084;28;20040;-74
2022/09/12 00:10:39;;;;;;;6.68;5.03;;;;;;;9.70;100.00;101245.31;5064781;28;20020;-74
2022/09/12 00:13:06;;;;;;;5.57;4.18;;;;;;;9.67;100.00;101245.63;5065258;28;20060;-74
2022/09/12 00:15:32;;;;;;;4.93;3.78;;;;;;;9.54;100.00;101246.91;5065375;28;20021;-74
2022/09/12 00:17:57;;;;;;;8.23;3.50;;;;;;;9.49;100.00;101242.84;5066120;28;20036;-73
2022/09/12 00:20:23;;;;;;;8.17;3.87;;;;;;;9.50;100.00;101241.88;5051347;28;20105;-74
2022/09/12 00:22:48;;;;;;;7.27;4.37;;;;;;;9.52;100.00;101236.38;5069238;28;20115;-74
2022/09/12 00:25:13;;;;;;;4.87;4.27;;;;;;;9.51;100.00;101240.88;5088094;23;20048;-79
2022/09/12 00:27:39;;;;;;;9.07;5.03;;;;;;;9.54;100.00;101238.91;5045987;28;20032;-77
2022/09/12 00:30:05;;;;;;;6.13;4.27;;;;;;;9.56;100.00;101245.78;5036831;28;20029;-77
2022/09/12 00:32:30;;;;;;;6.20;4.05;;;;;;;9.47;100.00;101233.31;5052124;28;20403;-82
2022/09/12 00:34:55;;;;;;;7.03;5.60;;;;;;;9.54;100.00;101234.41;5067584;28;20432;-81
2022/09/12 00:37:21;;;;;;;5.67;5.03;;;;;;;9.53;100.00;101235.41;5031172;28;20044;-78
2022/09/12 00:39:46;;;;;;;5.67;4.67;;;;;;;9.48;100.00;101235.84;5030272;28;20051;-77
2022/09/12 00:42:12;;;;;;;7.00;5.10;;;;;;;9.45;100.00;101235.28;5046430;28;20086;-78
2022/09/12 00:44:37;;;;;;;6.10;4.40;;;;;;;9.42;100.00;101238.25;5046866;28;20039;-78
2022/09/12 00:47:24;;;;;;;4.70;4.20;;;;;;;9.37;100.00;101232.50;5047413;28;20393;-78
2022/09/12 00:49:55;;;;;;;5.00;4.50;;;;;;;9.35;100.00;101227.31;5056863;28;20040;-78
2022/09/12 00:52:35;;;;;;;8.63;5.47;;;;;;;9.46;100.00;101234.31;5065095;28;20067;-78
2022/09/12 00:55:09;;;;;;;9.35;4.50;;;;;;;9.43;100.00;101229.25;5046138;28;20127;-77
2022/09/12 00:57:43;;;;;;;5.68;4.65;;;;;;;9.29;100.00;101226.06;5049244;28;20838;-78
2022/09/12 01:00:19;;;;;;;4.97;4.00;;;;;;;9.27;100.00;101228.03;5045673;28;20041;-78
2022/09/12 01:03:02;;;;;;;7.25;4.25;;;;;;;9.22;100.00;101214.28;5046314;28;20425;-77
2022/09/12 01:05:30;;;;;;;6.78;4.60;;;;;;;9.24;100.00;101220.31;5055079;28;20025;-77
2022/09/12 01:07:56;;;;;;;4.93;4.40;;;;;;;9.25;100.00;101222.00;5029608;28;20025;-77
2022/09/12 01:10:22;;;;;;;6.22;4.75;;;;;;;9.25;100.00;101223.81;5048443;28;20509;-78
2022/09/12 01:12:48;;;;;;;5.97;4.07;;;;;;;9.23;100.00;101210.63;5049573;28;20052;-78
2022/09/12 01:15:13;;;;;;;9.68;6.65;;;;;;;9.31;100.00;101215.25;5048541;28;20186;-78
2022/09/12 01:18:06;;;;;;;5.13;4.63;;;;;;;9.22;100.00;101216.94;5049404;28;20027;-77
2022/09/12 01:20:44;;;;;;;12.00;5.70;;;;;;;9.22;100.00;101216.94;5067218;28;20111;-78
2022/09/12 01:23:57;;;;;;;5.85;4.88;;;;;;;9.24;100.00;101225.63;5065650;28;20032;-78
2022/09/12 01:26:44;;;;;;;8.60;5.28;;;;;;;9.20;100.00;101221.59;5066126;28;20390;-78
2022/09/12 01:29:17;;;;;;;12.13;7.18;;;;;;;9.36;100.00;101230.81;5038346;28;20072;-78
2022/09/12 01:31:56;;;;;;;7.90;5.30;;;;;;;9.29;100.00;101236.72;5052629;28;20044;-77
2022/09/12 01:34:45;;;;;;;8.60;5.38;;;;;;;9.15;100.00;101229.13;5047789;28;20037;-77
2022/09/12 01:37:23;;;;;;;9.45;5.38;;;;;;;9.08;100.00;101217.38;5048457;28;20044;-78
2022/09/12 01:40:15;;;;;;;9.18;5.45;;;;;;;9.09;100.00;101221.72;5067056;28;20075;-78
2022/09/12 01:42:45;;;;;;;7.25;5.60;;;;;;;9.04;100.00;101213.31;5049724;28;20038;-77
2022/09/12 01:45:24;;;;;;;5.18;4.50;;;;;;;8.99;100.00;101221.75;5048318;28;20139;-77
2022/09/12 01:48:02;;;;;;;7.45;4.70;;;;;;;8.99;100.00;101204.91;5065721;28;20496;-78
2022/09/12 01:50:31;;;;;;;7.70;6.25;;;;;;;9.04;100.00;101208.84;5048109;28;20060;-78
2022/09/12 01:53:03;;;;;;;7.38;5.70;;;;;;;9.02;100.00;101193.97;5065709;28;20111;-78
2022/09/12 01:55:33;;;;;;;6.07;5.07;;;;;;;8.96;100.00;101202.53;5033294;28;20029;-78
2022/09/12 01:58:10;;;;;;;8.23;5.30;;;;;;;8.97;100.00;101198.91;5065520;28;20123;-78
2022/09/12 02:00:46;;;;;;;8.10;5.07;;;;;;;8.97;100.00;101193.56;5048527;28;20032;-77
2022/09/12 02:03:16;;;;;;;11.93;8.88;;;;;;;9.10;100.00;101186.09;5064971;28;20036;-77
2022/09/12 02:05:51;;;;;;;7.55;5.60;;;;;;;9.06;100.00;101193.56;5065529;28;20412;-78
2022/09/12 02:08:21;;;;;;;9.90;5.67;;;;;;;8.98;100.00;101195.25;5064855;28;20032;-77
2022/09/12 02:10:55;;;;;;;10.75;6.88;;;;;;;8.96;100.00;101191.88;5060895;28;20513;-78
2022/09/12 02:13:29;;;;;;;9.70;7.53;;;;;;;9.00;100.00;101188.78;5064165;28;20068;-78
2022/09/12 02:16:02;;;;;;;9.98;5.90;;;;;;;9.04;100.00;101189.34;5065750;28;20036;-78
2022/09/12 02:18:31;;;;;;;10.98;7.95;;;;;;;9.08;100.00;101185.41;5065582;28;20039;-78
2022/09/12 02:20:59;;;;;;;8.98;6.50;;;;;;;9.16;100.00;101185.56;5048908;28;20377;-78
2022/09/12 02:23:30;;;;;;;7.55;6.75;;;;;;;9.18;100.00;101191.59;5066424;28;20068;-78
2022/09/12 02:26:05;;;;;;;14.55;8.20;;;;;;;9.19;100.00;101185.25;5065259;28;20031;-78
2022/09/12 02:28:34;;;;;;;15.30;8.45;;;;;;;9.32;100.00;101194.75;5041966;28;20068;-78
2022/09/12 02:31:12;;;;;;;10.07;7.03;;;;;;;9.27;100.00;101188.06;5066069;28;20991;-78
2022/09/12 02:33:48;;;;;;;11.75;7.00;;;;;;;9.23;100.00;101194.66;5052302;28;20090;-78
2022/09/12 02:36:48;;;;;;;228.18;22.67;;;;;;;9.29;100.00;101202.09;5048207;28;20127;-78
2022/09/12 02:39:18;;;;;;;159.70;18.30;;;;;;;9.38;100.00;101204.84;5062365;28;20041;-78
2022/09/12 02:41:50;;;;;;;108.35;20.05;;;;;;;9.39;100.00;101210.06;5065463;28;20059;-78
2022/09/12 02:44:16;;;;;;;136.48;19.25;;;;;;;9.37;100.00;101201.38;5049855;28;20070;-78
2022/09/12 02:46:52;;;;;;;20.50;13.05;;;;;;;9.32;100.00;101197.44;5050349;28;20070;-78
2022/09/12 02:49:17;;;;;;;;;;;;;;;9.30;100.00;101202.91;5050557;28;20386;-78
2022/09/12 02:51:44;;;;;;;;;;;;;;;9.27;100.00;101197.84;5051062;28;20003;-78
2022/09/12 02:54:10;;;;;;;244.63;23.75;;;;;;;9.30;100.00;101195.75;5066533;28;19912;-78
2022/09/12 02:56:40;;;;;;;;;;;;;;;9.39;100.00;101211.84;5067605;28;20028;-78
2022/09/12 02:59:08;;;;;;;24.50;12.50;;;;;;;9.43;100.00;101206.09;5068183;28;19920;-78
2022/09/12 03:01:40;;;;;;;17.83;12.52;;;;;;;9.34;100.00;101204.31;5050300;28;20020;-78
2022/09/12 03:04:17;;;;;;;37.05;13.50;;;;;;;9.27;100.00;101197.84;5067677;28;20098;-78
2022/09/12 03:06:57;;;;;;;37.83;15.50;;;;;;;9.30;100.00;101202.91;5050592;28;20028;-78
2022/09/12 03:09:25;;;;;;;21.45;14.10;;;;;;;9.33;100.00;101207.94;5068762;28;20044;-78
2022/09/12 03:12:17;;;;;;;20.58;12.98;;;;;;;9.34;100.00;101203.47;5050758;28;20026;-78
2022/09/12 03:15:21;;;;;;;26.38;14.20;;;;;;;9.32;100.00;101194.75;5050692;28;20086;-78
2022/09/12 03:18:03;;;;;;;20.20;12.68;;;;;;;9.25;100.00;101192.69;5029020;28;20045;-78
2022/09/12 03:20:40;;;;;;;17.40;12.30;;;;;;;9.20;100.00;101194.94;5050851;28;20052;-78
2022/09/12 03:23:33;;;;;;;39.58;13.50;;;;;;;9.16;100.00;101180.22;5050250;28;20086;-78
2022/09/12 03:26:04;;;;;;;23.73;13.98;;;;;;;9.22;100.00;101190.28;5067425;28;20394;-78
2022/09/12 03:28:31;;;;;;;22.27;13.48;;;;;;;9.19;100.00;101185.25;5048432;28;20040;-78
2022/09/12 03:30:58;;;;;;;79.38;18.73;;;;;;;9.20;100.00;101192.28;5047307;28;20372;-78
2022/09/12 03:33:24;;;;;;;298.08;29.77;;;;;;;9.24;100.00;101188.31;5050716;28;20125;-78
2022/09/12 03:35:51;;;;;;;52.13;17.92;;;;;;;9.26;100.00;101186.38;5068213;28;20021;-78
2022/09/12 03:38:16;;;;;;;;;;;;;;;9.23;100.00;101185.81;5068976;28;20083;-78
2022/09/12 03:40:42;;;;;;;;;;;;;;;9.25;100.00;101184.69;5052655;28;19908;-78
2022/09/12 03:43:09;;;;;;;26.58;13.85;;;;;;;9.24;100.00;101191.00;5052380;28;19918;-78
2022/09/12 03:45:36;;;;;;;163.98;22.25;;;;;;;9.22;100.00;101189.47;5053094;28;20537;-79
2022/09/12 03:48:02;;;;;;;265.75;28.15;;;;;;;9.15;100.00;101185.69;5070774;28;20036;-78
2022/09/12 03:50:27;;;;;;;37.97;16.10;;;;;;;9.15;100.00;101178.53;5054636;28;20027;-78
2022/09/12 03:52:52;;;;;;;29.53;15.83;;;;;;;9.19;100.00;101190.59;5064985;28;20099;-79
2022/09/12 03:55:18;;;;;;;76.37;19.57;;;;;;;9.23;100.00;101186.66;5054943;28;20021;-79
2022/09/12 03:57:44;;;;;;;27.50;15.90;;;;;;;9.26;100.00;101196.19;5071729;28;20432;-79
2022/09/12 04:00:10;;;;;;;27.20;15.65;;;;;;;9.22;100.00;101190.28;5055067;28;20501;-78
2022/09/12 04:02:38;;;;;;;58.95;18.17;;;;;;;9.17;100.00;101189.88;5074436;28;20048;-79
2022/09/12 04:05:04;;;;;;;25.40;14.60;;;;;;;9.13;100.00;101184.97;5063733;28;20012;-79
2022/09/12 04:07:29;;;;;;;22.63;13.98;;;;;;;9.07;100.00;101186.41;5057083;28;20033;-79
2022/09/12 04:09:55;;;;;;;23.73;14.20;;;;;;;9.05;100.00;101188.38;5054159;28;20056;-78
2022/09/12 04:12:20;;;;;;;19.88;13.43;;;;;;;9.11;100.00;101192.28;5054148;28;20041;-78
2022/09/12 04:14:46;;;;;;;20.10;14.10;;;;;;;9.08;100.00;101185.41;5072494;28;20097;-78
2022/09/12 04:17:12;;;;;;;22.08;13.07;;;;;;;9.08;100.00;101183.59;5072092;28;20079;-78
2022/09/12 04:19:38;;;;;;;181.60;25.50;;;;;;;9.08;100.00;101174.75;5047468;28;20051;-79
2022/09/12 04:22:03;;;;;;;41.23;18.83;;;;;;;9.09;100.00;101173.78;5072553;28;20036;-78
2022/09/12 04:24:28;;;;;;;22.33;13.97;;;;;;;8.97;100.00;101169.59;5047931;28;20028;-78
2022/09/12 04:26:54;;;;;;;26.37;15.80;;;;;;;8.97;100.00;101180.25;5053032;28;20025;-79
2022/09/12 04:29:19;;;;;;;24.93;15.47;;;;;;;8.94;100.00;101175.19;5062039;28;20025;-81
2022/09/12 04:31:45;;;;;;;26.97;15.43;;;;;;;9.03;100.00;101179.66;5051542;28;20081;-79
2022/09/12 04:34:10;;;;;;;27.47;13.60;;;;;;;8.94;100.00;101169.88;5065156;28;20025;-79
2022/09/12 04:36:36;;;;;;;27.87;15.67;;;;;;;8.91;100.00;101173.66;5060837;28;20029;-79
2022/09/12 04:39:03;;;;;;;30.30;15.80;;;;;;;8.94;100.00;101176.03;5042150;28;20022;-79
2022/09/12 04:41:31;;;;;;;86.70;19.23;;;;;;;9.04;100.00;101176.88;5061263;28;20485;-78
2022/09/12 04:44:02;;;;;;;28.92;16.70;;;;;;;9.03;100.00;101179.66;5057949;28;20029;-79
2022/09/12 04:46:33;;;;;;;28.13;13.35;;;;;;;8.96;100.00;101174.06;5049226;28;20036;-79
2022/09/12 04:48:58;;;;;;;42.25;18.38;;;;;;;8.97;100.00;101172.28;5040832;28;20048;-79
2022/09/12 04:51:33;;;;;;;22.43;14.33;;;;;;;9.00;100.00;101178.13;5055500;28;20029;-79
2022/09/12 04:54:02;;;;;;;22.20;13.83;;;;;;;9.01;100.00;101177.16;5047732;28;20020;-79
2022/09/12 04:56:28;;;;;;;84.35;19.83;;;;;;;8.99;100.00;101178.25;5070228;28;20281;-79
2022/09/12 04:58:56;;;;;;;22.50;13.85;;;;;;;9.01;100.00;101173.63;5052925;28;20401;-79
2022/09/12 05:01:22;;;;;;;23.13;14.20;;;;;;;9.03;100.00;101177.84;5056801;28;20024;-78
2022/09/12 05:03:49;;;;;;;22.20;14.23;;;;;;;9.11;100.00;101190.47;5056009;28;20397;-79
2022/09/12 05:06:21;;;;;;;19.92;14.07;;;;;;;9.18;100.00;101188.09;5060119;28;20906;-79
2022/09/12 05:08:46;;;;;;;27.85;16.40;;;;;;;9.25;100.00;101179.38;5045149;28;20452;-78
2022/09/12 05:11:14;;;;;;;20.07;13.80;;;;;;;9.27;100.00;101179.19;5068633;28;20032;-79
2022/09/12 05:13:40;;;;;;;16.67;12.13;;;;;;;9.21;100.00;101175.31;5058850;28;20059;-79
2022/09/12 05:16:07;;;;;;;19.88;11.82;;;;;;;9.27;100.00;101172.06;5062513;28;20056;-78
2022/09/12 05:18:34;;;;;;;15.00;11.20;;;;;;;9.32;100.00;101173.44;5055038;28;20032;-78
2022/09/12 05:21:01;;;;;;;13.70;10.40;;;;;;;9.38;100.00;101172.88;5045610;28;20049;-78
2022/09/12 05:23:27;;;;;;;14.40;10.65;;;;;;;9.42;100.00;101163.63;5061973;28;20107;-78
2022/09/12 05:25:55;;;;;;;16.08;12.13;;;;;;;9.52;100.00;101161.75;5066412;28;20017;-77
2022/09/12 05:28:21;;;;;;;21.10;14.38;;;;;;;9.62;100.00;101159.06;5068707;28;20048;-79
2022/09/12 05:30:47;;;;;;;35.33;19.70;;;;;;;9.70;100.00;101154.69;5060561;28;20024;-77
2022/09/12 05:33:13;;;;;;;26.85;17.92;;;;;;;9.82;100.00;101155.31;5047264;28;20048;-77
2022/09/12 05:35:39;;;;;;;;;;;;;;;9.96;100.00;101155.81;5049533;28;20160;-78
2022/09/12 05:38:05;;;;;;;;;;;;;;;10.10;100.00;101152.66;5057445;28;20467;-78
2022/09/12 05:40:31;;;;;;;17.98;11.52;;;;;;;10.25;100.00;101155.66;5041984;28;19963;-81
2022/09/12 05:42:56;;;;;;;25.17;14.60;;;;;;;10.38;100.00;101150.00;5050255;28;20028;-77
2022/09/12 05:45:22;;;;;;;113.87;18.73;;;;;;;10.58;100.00;101148.81;5044985;28;20044;-79
2022/09/12 05:47:47;;;;;;;232.35;27.27;;;;;;;10.73;100.00;101151.81;5055391;28;20040;-79
2022/09/12 05:50:13;;;;;;;13.07;10.43;;;;;;;10.83;100.00;101157.06;5038033;28;20037;-78
2022/09/12 05:52:38;;;;;;;14.43;11.50;;;;;;;10.84;100.00;101154.25;5061121;28;20365;-77
2022/09/12 05:55:04;;;;;;;19.87;13.27;;;;;;;11.02;100.00;101159.56;5061055;28;20021;-78
2022/09/12 05:57:30;;;;;;;17.00;13.25;;;;;;;11.54;100.00;101166.75;5044390;28;20341;-80
2022/09/12 05:59:55;;;;;;;16.23;11.45;;;;;;;12.62;100.00;101191.13;5069278;28;20555;-77
2022/09/12 06:02:21;;;;;;;12.77;10.87;;;;;;;13.73;100.00;101193.25;5052194;28;20037;-77
2022/09/12 06:04:46;;;;;;;10.90;9.20;;;;;;;14.71;100.00;101182.03;5043134;28;20025;-77
2022/09/12 06:07:13;;;;;;;11.23;8.50;;;;;;;15.37;100.00;101178.78;5047778;28;20561;-76
2022/09/12 06:09:38;;;;;;;9.63;7.75;;;;;;;15.49;100.00;101171.94;5035890;28;20025;-78
2022/09/12 06:12:04;;;;;;;7.60;6.43;;;;;;;15.74;100.00;101134.84;5056265;28;20033;-78
2022/09/12 06:14:29;;;;;;;6.93;5.77;;;;;;;15.76;100.00;101078.97;5059613;28;20868;-77
2022/09/12 06:16:55;;;;;;;6.33;5.73;;;;;;;16.74;100.00;101073.94;5059234;28;20123;-79
2022/09/12 06:19:22;;;;;;;8.13;5.93;;;;;;;17.70;100.00;101041.75;5041662;28;20389;-81
2022/09/12 06:21:48;;;;;;;8.05;6.53;;;;;;;18.05;100.00;100919.25;5037383;28;20056;-78
2022/09/12 06:24:14;;;;;;;8.88;6.57;;;;;;;18.62;100.00;100854.75;5067648;28;20060;-78
2022/09/12 06:26:40;;;;;;;;;;;;;;;19.22;100.00;100790.34;5045725;28;20025;-79
2022/09/12 06:29:06;;;;;;;7.05;4.72;;;;;;;19.50;100.00;100629.38;5057213;28;20280;-79
2022/09/12 06:31:33;;;;;;;;;;;;;;;19.73;100.00;100564.56;5055926;28;20028;-78
2022/09/12 06:34:01;;;;;;;3.88;3.58;;;;;;;19.97;100.00;100488.81;5035616;28;19908;-78
2022/09/12 06:36:32;;;;;;;8.48;4.18;;;;;;;19.37;100.00;100381.31;5058706;28;20031;-77
2022/09/12 06:39:06;;;;;;;5.55;4.70;;;;;;;19.16;100.00;100499.00;5042444;28;20024;-79
2022/09/12 06:41:32;;;;;;;5.13;3.85;;;;;;;19.22;100.00;100472.91;5047641;28;20091;-78
2022/09/12 06:43:59;;;;;;;5.40;2.72;;;;;;;19.74;100.00;100541.84;5045707;28;20025;-78
2022/09/12 06:46:26;;;;;;;3.92;2.85;;;;;;;19.44;100.00;100381.22;5055284;28;20040;-81
2022/09/12 06:48:52;;;;;;;3.75;3.03;;;;;;;19.65;100.00;100372.59;5056154;28;20029;-79
2022/09/12 06:51:19;;;;;;;6.57;2.72;;;;;;;18.54;100.00;100313.25;5056774;28;20489;-78
2022/09/12 06:53:46;;;;;;;4.07;2.50;;;;;;;18.98;100.00;100506.03;5048470;28;20689;-78
2022/09/12 06:56:13;;;;;;;6.53;2.78;;;;;;;19.02;100.00;100455.03;5064441;28;20041;-78
2022/09/12 06:58:39;;;;;;;4.28;2.95;;;;;;;17.33;100.00;100506.06;5055357;28;20044;-77
2022/09/12 07:01:05;;;;;;;;;;;;;;;17.04;100.00;100739.31;5055784;28;20509;-79
2022/09/12 07:03:31;;;;;;;2.63;2.40;;;;;;;17.02;100.00;100811.50;5058114;28;20007;-80
2022/09/12 07:06:01;;;;;;;4.53;2.65;;;;;;;16.77;100.00;100776.97;5042689;28;20027;-77
2022/09/12 07:08:28;;;;;;;6.25;2.63;;;;;;;17.06;100.00;100872.09;5039582;28;20116;-78
2022/09/12 07:10:53;;;;;;;2.78;2.15;;;;;;;17.14;100.00;100881.88;5055202;28;20090;-77
2022/09/12 07:13:19;;;;;;;4.60;2.73;;;;;;;16.93;100.00;100832.47;5040249;28;20025;-77
2022/09/12 07:15:44;;;;;;;3.60;2.00;;;;;;;17.03;100.00;100872.53;5042492;28;20032;-81
2022/09/12 07:18:10;;;;;;;3.30;2.20;;;;;;;17.77;100.00;100922.09;5040574;28;20090;-77
2022/09/12 07:20:36;;;;;;;3.25;2.40;;;;;;;17.45;100.00;100789.59;5054927;28;20132;-80
2022/09/12 07:23:01;;;;;;;2.83;2.15;;;;;;;17.48;100.00;100813.47;5054991;28;20024;-77
2022/09/12 07:25:27;;;;;;;3.13;2.40;;;;;;;17.72;100.00;100839.88;5058048;28;20020;-78
2022/09/12 07:27:52;;;;;;;3.03;2.30;;;;;;;17.88;100.00;100824.31;5041803;28;20397;-80
2022/09/12 07:30:18;;;;;;;3.22;2.22;;;;;;;18.25;100.00;100876.03;5058355;28;20116;-78
2022/09/12 07:32:43;;;;;;;3.45;2.78;;;;;;;18.12;100.00;100763.38;5042403;28;20389;-78
2022/09/12 07:35:08;;;;;;;4.03;2.30;;;;;;;18.26;100.00;100812.81;5064497;28;20059;-79
2022/09/12 07:37:34;;;;;;;2.93;2.47;;;;;;;18.37;100.00;100868.94;5033341;28;20212;-78
2022/09/12 07:40:01;;;;;;;3.70;2.77;;;;;;;17.42;100.00;100722.53;5040870;28;20112;-78
2022/09/12 07:42:26;;;;;;;5.95;2.47;;;;;;;17.67;100.00;100968.41;5055192;28;20017;-77
2022/09/12 07:44:52;;;;;;;8.50;2.67;;;;;;;17.93;100.00;100894.72;5054449;28;20086;-78
2022/09/12 07:47:17;;;;;;;5.53;2.50;;;;;;;17.86;100.00;100850.69;5038483;28;20052;-78
2022/09/12 07:49:43;;;;;;;2.83;2.17;;;;;;;17.86;100.00;100872.28;5057435;28;20473;-79
2022/09/12 07:52:08;;;;;;;2.43;2.17;;;;;;;18.26;100.00;100910.09;5040979;28;20036;-78
2022/09/12 07:54:34;;;;;;;4.15;2.90;;;;;;;17.45;100.00;100821.97;5056011;28;20033;-77
2022/09/12 07:56:59;;;;;;;4.27;2.60;;;;;;;18.55;100.00;101006.16;5054862;28;20025;-78
2022/09/12 07:59:25;;;;;;;3.17;1.70;;;;;;;19.41;100.00;100780.47;5053288;28;20041;-78
2022/09/12 08:01:50;;;;;;;2.37;1.93;;;;;;;19.55;100.00;100486.03;5034286;28;20029;-80
2022/09/12 08:04:16;;;;;;;4.65;1.73;;;;;;;19.20;100.00;100413.63;5053876;28;20087;-78
2022/09/12 08:06:41;;;;;;;1.73;1.63;;;;;;;19.02;100.00;100430.66;5056944;28;20021;-77
2022/09/12 08:09:07;;;;;;;3.00;1.83;;;;;;;18.40;100.00;100363.06;5040720;28;20156;-79
2022/09/12 08:11:32;;;;;;;7.03;1.90;;;;;;;18.62;100.00;100595.16;5034304;28;20025;-77
2022/09/12 08:13:58;;;;;;;3.33;1.92;;;;;;;18.33;100.00;100651.47;5057392;28;20032;-78
2022/09/12 08:16:29;;;;;;;2.85;1.55;;;;;;;19.00;100.00;100559.09;5053914;28;20036;-77
2022/09/12 08:18:55;;;;;;;4.15;1.50;;;;;;;19.95;100.00;100501.78;5054831;28;20048;-80
2022/09/12 08:21:26;;;;;;;2.63;1.50;;;;;;;20.76;100.00;100396.38;5055213;28;20079;-78
2022/09/12 08:23:55;;;;;;;2.30;1.98;;;;;;;19.82;100.00;99932.09;5033300;28;20029;-78
2022/09/12 08:26:20;;;;;;;1.55;1.45;;;;;;;19.44;100.00;100194.44;5044937;28;20512;-79
2022/09/12 08:28:46;;;;;;;3.37;1.57;;;;;;;20.49;100.00;100188.09;5058774;28;20037;-77
2022/09/12 08:31:14;;;;;;;2.17;1.60;;;;;;;20.00;98.14;100016.94;5056008;28;20446;-77
2022/09/12 08:33:39;;;;;;;4.60;1.80;;;;;;;19.42;99.56;100048.50;5056948;28;20033;-76
2022/09/12 08:36:15;;;;;;;3.70;1.90;;;;;;;19.99;97.03;100107.41;5047754;28;20056;-80
2022/09/12 08:38:43;;;;;;;3.40;1.77;;;;;;;20.21;96.98;100172.63;5040483;28;20401;-78
2022/09/12 08:41:30;;;;;;;2.13;1.65;;;;;;;20.52;94.44;100157.75;5033225;28;20379;-78
2022/09/12 08:44:18;;;;;;;2.83;1.48;;;;;;;20.03;91.14;99937.88;5053164;28;20041;-77
2022/09/12 08:47:12;;;;;;;3.90;1.90;;;;;;;19.88;92.76;100016.16;5054018;28;20033;-78
2022/09/12 08:50:00;;;;;;;3.40;1.60;;;;;;;20.05;93.08;100092.91;5038042;28;20033;-77
2022/09/12 08:52:52;;;;;;;2.65;1.98;;;;;;;19.70;97.29;100237.34;5058158;28;20065;-77
2022/09/12 08:55:23;;;;;;;7.68;1.77;;;;;;;19.77;100.00;100394.31;5045474;28;20052;-78
2022/09/12 08:57:50;;;;;;;1.92;1.77;;;;;;;20.06;100.00;100438.66;5063084;28;20111;-79
2022/09/12 09:00:18;;;;;;;2.08;1.30;;;;;;;20.75;94.23;100335.91;5042258;28;20040;-78
2022/09/12 09:03:18;;;;;;;6.03;1.63;;;;;;;20.72;95.10;100392.50;5053517;28;20025;-78
2022/09/12 09:06:07;;;;;;;5.65;1.85;;;;;;;21.62;83.90;100059.69;5033842;28;20025;-78
2022/09/12 09:08:45;;;;;;;4.68;1.33;;;;;;;21.69;80.96;99959.81;5049494;28;20624;-79
2022/09/12 09:11:38;;;;;;;2.58;1.92;;;;;;;21.13;79.79;99818.78;5057816;28;20037;-77
2022/09/12 09:17:01;;;;;;;3.80;1.60;;;;;;;19.71;84.84;99903.19;5057449;28;20098;-80
2022/09/12 09:19:36;;;;;;;2.88;1.90;;;;;;;19.98;86.25;100100.34;5061101;28;20032;-77
2022/09/12 09:22:30;;;;;;;2.45;1.80;;;;;;;19.58;85.60;99952.19;5060278;28;20035;-77
2022/09/12 09:25:01;;;;;;;5.43;1.60;;;;;;;19.97;91.07;100385.84;5056624;28;20417;-76
2022/09/12 09:27:40;;;;;;;1.95;1.40;;;;;;;21.46;83.65;100309.31;5059677;28;20032;-77
2022/09/12 09:30:12;;;;;;;2.72;1.80;;;;;;;21.28;78.51;99940.28;5042695;28;20028;-78
2022/09/12 09:32:40;;;;;;;3.20;1.55;;;;;;;20.65;78.24;99794.09;5056644;28;20029;-78
2022/09/12 09:35:40;;;;;;;2.72;1.70;;;;;;;21.03;79.52;100063.72;5030705;28;20036;-78
2022/09/12 09:38:44;;;;;;;5.20;1.90;;;;;;;20.55;77.89;99840.03;5059890;28;20035;-78
2022/09/12 09:41:20;;;;;;;2.85;1.70;;;;;;;20.54;78.16;99883.66;5063970;28;20032;-79
2022/09/12 09:43:45;;;;;;;4.10;1.95;;;;;;;20.43;77.93;99864.53;5059287;28;20067;-76
2022/09/12 09:46:12;;;;;;;4.00;1.50;;;;;;;20.52;79.96;100071.00;5058301;28;20449;-78
2022/09/12 09:48:43;;;;;;;2.05;1.35;;;;;;;20.85;78.64;100099.25;5055881;28;20036;-77
2022/09/12 09:51:08;;;;;;;3.75;1.55;;;;;;;20.93;77.60;100027.47;5055631;28;20064;-79
2022/09/12 09:53:40;;;;;;;2.67;1.77;;;;;;;20.40;80.60;100109.00;5059032;28;20835;-77
2022/09/12 09:56:43;;;;;;;4.07;1.90;;;;;;;20.46;80.99;100183.13;5050380;28;20033;-78
2022/09/12 09:59:09;;;;;;;2.33;1.83;;;;;;;20.47;80.32;100137.88;5047015;28;20271;-77
2022/09/12 10:01:34;;;;;;;3.05;2.00;;;;;;;19.95;81.81;100095.41;5035286;28;20025;-77
2022/09/12 10:03:59;;;;;;;2.47;1.77;;;;;;;19.98;82.38;100151.81;5051389;28;20025;-78
2022/09/12 10:06:31;;;;;;;2.47;1.60;;;;;;;21.17;83.08;100497.69;5059167;28;20020;-80
2022/09/12 10:09:31;;;;;;;2.30;1.63;;;;;;;20.37;79.50;100041.75;5060314;28;20552;-77
2022/09/12 10:11:58;;;;;;;3.55;1.88;;;;;;;20.36;80.67;100136.84;4996808;28;20045;-77
2022/09/12 10:14:28;;;;;;;;;;;;;;;20.69;81.33;100296.16;5059126;28;20047;-77
2022/09/12 10:16:56;;;;;;;4.07;1.80;;;;;;;20.22;82.89;100280.78;5059823;28;20304;-76
2022/09/12 10:19:42;;;;;;;7.53;1.50;;;;;;;21.01;80.52;100315.50;5050539;28;20390;-77
2022/09/12 10:22:16;;;;;;;2.22;1.58;;;;;;;22.19;77.51;100369.16;5060097;28;20048;-77
2022/09/12 10:24:48;;;;;;;4.13;1.83;;;;;;;20.73;77.31;100014.44;5062475;28;20095;-79
2022/09/12 10:27:43;;;;;;;3.88;1.80;;;;;;;21.56;80.92;100506.09;5045798;28;20087;-78
2022/09/12 10:30:20;;;;;;;1.93;1.60;;;;;;;21.08;78.72;100223.91;4978136;28;20045;-77
2022/09/12 10:32:52;;;;;;;2.88;2.20;;;;;;;20.69;77.30;100024.94;4983984;28;20124;-77
2022/09/12 10:35:20;;;;;;;2.05;1.80;;;;;;;20.80;78.60;100191.41;4981532;28;20557;-77
2022/09/12 10:38:05;;;;;;;2.70;2.10;;;;;;;20.10;80.19;100122.78;4981478;28;20033;-77
2022/09/12 10:40:39;;;;;;;4.35;1.80;;;;;;;20.62;82.34;100420.22;4973595;28;20048;-77
2022/09/12 10:43:26;;;;;;;3.63;1.92;;;;;;;21.86;80.39;100565.66;4981165;28;20870;-80
2022/09/12 10:45:56;;;;;;;2.03;1.60;;;;;;;21.42;77.25;100234.84;4997734;28;20181;-78
2022/09/12 10:48:30;;;;;;;5.45;1.77;;;;;;;21.63;79.70;100472.31;4978760;28;20073;-78
2022/09/12 10:50:57;;;;;;;4.22;1.65;;;;;;;20.94;79.82;100276.84;4984738;28;20034;-77
2022/09/12 10:53:24;;;;;;;3.45;1.60;;;;;;;20.92;78.35;100208.44;4969399;28;20034;-78
2022/09/12 10:56:00;;;;;;;2.75;1.90;;;;;;;20.57;78.55;100114.50;4959751;28;20034;-79
2022/09/12 10:58:35;;;;;;;3.42;1.80;;;;;;;21.06;80.59;100421.44;4980982;28;20048;-77
2022/09/12 11:01:28;;;;;;;3.00;2.13;;;;;;;20.70;79.84;100238.16;4981068;28;20101;-76
2022/09/12 11:04:15;;;;;;;3.25;1.60;;;;;;;21.52;79.21;100442.47;4985926;28;20134;-78
2022/09/12 11:07:18;;;;;;;4.50;1.77;;;;;;;20.79;80.84;100356.06;5011014;28;20177;-77
2022/09/12 11:09:53;;;;;;;3.15;1.70;;;;;;;20.55;81.40;100283.91;5065119;28;20051;-76
2022/09/12 11:12:36;;;;;;;3.97;1.85;;;;;;;21.13;86.13;100719.09;5057957;28;20094;-78
2022/09/12 11:15:13;;;;;;;4.35;2.35;;;;;;;21.95;79.92;100522.63;5059145;28;20038;-78
2022/09/12 11:17:55;;;;;;;3.90;1.70;;;;;;;20.83;81.20;100316.50;5034035;28;20034;-77
2022/09/12 11:20:52;;;;;;;3.17;2.45;;;;;;;21.04;84.01;100569.31;5056555;28;20033;-78
2022/09/12 11:23:36;;;;;;;2.22;1.83;;;;;;;21.72;83.41;100698.25;5046680;28;20396;-78
2022/09/12 11:26:07;;;;;;;2.95;2.13;;;;;;;22.32;80.05;100608.19;5046041;28;20112;-77
2022/09/12 11:28:48;;;;;;;3.08;1.50;;;;;;;21.37;80.78;100419.34;5046536;28;20048;-77
2022/09/12 11:31:44;;;;;;;3.20;1.92;;;;;;;21.20;83.88;100519.75;5036686;28;20033;-78
2022/09/12 11:34:13;;;;;;;4.25;1.75;;;;;;;21.88;86.90;100847.00;5056586;28;20151;-80
2022/09/12 11:36:38;;;;;;;3.00;2.10;;;;;;;21.19;84.79;100544.41;5054028;28;20017;-78
2022/09/12 11:39:22;;;;;;;2.97;2.00;;;;;;;22.42;82.65;100726.41;5054105;28;20449;-77
2022/09/12 11:41:57;;;;;;;4.75;1.70;;;;;;;22.64;80.53;100614.97;5055003;28;20052;-78
2022/09/12 11:44:31;;;;;;;2.13;1.92;;;;;;;21.45;79.64;100239.78;5039114;28;20042;-77